Miltona, Minnesota
Current Conditions -  °F | °C
As of 1:53 PM on Thursday 29 Jan 2015 (Local Time) from KAXN Reporting Station
Broken Clouds Broken Clouds  
Wind Chill:   Ceiling: 2000
Heat Index: 19°   Visibility: 9mi
Dew Point: 10°   Wind: 18mph
Humidity: 68%   Direction: 340°NNW
Pressure: 30.37"   Gusts: 26mph
Location:  46.04°N, 95.29°W
Report Text: KAXN 291953Z AUTO 34016G23KT 9SM FEW015 BKN020 M07/M12 A3037 RMK AO2 PK WND 32033/1855 SNE04B38E48 SLP310 P0000 T10721122
Loading
Personal Weather Stations






























Interactive Weather Map New forecast layout! Learn more

10-Day Weather Forecast

Advertisements
Track Severe Weather on mobile